Terminal Aerodrome Forecast
Issued by NWS Central Illinois

Home | Current Version | Previous Version | Text Only | Print | Product List | Glossary On
Versions: 1 2 3 4 5 6 7 8 9 10 11 12 13 14 15 16 17 18 19
000
FTUS43 KILX 182351 CCA
TAFPIA
TAF COR
KPIA 182351Z 1900/1924 22006KT P6SM VCTS SCT050CB BKN200
      TEMPO 1901/1903 4SM -TSRA BR OVC050CB
     FM190500 VRB03KT P6SM SCT060 BKN150
     FM190900 VRB03KT 4SM BR SCT150
     FM191300 VRB05KT P6SM SCT150=

USA.gov is the U.S. government's official web portal to all federal, state and local government web resources and services.